sensor_id;sensor_type;location;lat;lon;timestamp;P1;durP1;ratioP1;P2;durP2;ratioP2
25479;SDS011;13393;49.378;8.686;2022-07-29T00:01:05;4.78;;;2.78;;
25479;SDS011;13393;49.378;8.686;2022-07-29T00:03:31;5.03;;;2.85;;
25479;SDS011;13393;49.378;8.686;2022-07-29T00:05:57;4.45;;;3.30;;
25479;SDS011;13393;49.378;8.686;2022-07-29T00:08:25;6.53;;;3.00;;
25479;SDS011;13393;49.378;8.686;2022-07-29T00:10:51;4.55;;;2.72;;
25479;SDS011;13393;49.378;8.686;2022-07-29T00:13:18;4.75;;;2.85;;
25479;SDS011;13393;49.378;8.686;2022-07-29T00:15:44;3.63;;;2.70;;
25479;SDS011;13393;49.378;8.686;2022-07-29T00:18:11;5.03;;;2.70;;
25479;SDS011;13393;49.378;8.686;2022-07-29T00:20:37;3.65;;;2.70;;
25479;SDS011;13393;49.378;8.686;2022-07-29T00:23:03;3.80;;;2.90;;
25479;SDS011;13393;49.378;8.686;2022-07-29T00:25:31;4.40;;;2.90;;
25479;SDS011;13393;49.378;8.686;2022-07-29T00:27:57;3.05;;;2.40;;
25479;SDS011;13393;49.378;8.686;2022-07-29T00:30:24;4.82;;;2.70;;
25479;SDS011;13393;49.378;8.686;2022-07-29T00:32:50;3.35;;;2.45;;
25479;SDS011;13393;49.378;8.686;2022-07-29T00:35:16;4.85;;;2.67;;
25479;SDS011;13393;49.378;8.686;2022-07-29T00:38:00;4.60;;;2.90;;
25479;SDS011;13393;49.378;8.686;2022-07-29T00:40:27;2.80;;;2.60;;
25479;SDS011;13393;49.378;8.686;2022-07-29T00:42:54;2.70;;;2.50;;
25479;SDS011;13393;49.378;8.686;2022-07-29T00:45:21;4.15;;;2.80;;
25479;SDS011;13393;49.378;8.686;2022-07-29T00:47:47;3.33;;;2.63;;
25479;SDS011;13393;49.378;8.686;2022-07-29T00:50:14;4.35;;;3.00;;
25479;SDS011;13393;49.378;8.686;2022-07-29T00:52:41;4.20;;;2.60;;
25479;SDS011;13393;49.378;8.686;2022-07-29T00:55:08;7.18;;;3.15;;
25479;SDS011;13393;49.378;8.686;2022-07-29T00:57:35;3.67;;;3.05;;
25479;SDS011;13393;49.378;8.686;2022-07-29T01:00:03;3.95;;;2.72;;
25479;SDS011;13393;49.378;8.686;2022-07-29T01:02:30;4.85;;;3.10;;
25479;SDS011;13393;49.378;8.686;2022-07-29T01:04:56;3.28;;;2.60;;
25479;SDS011;13393;49.378;8.686;2022-07-29T01:07:23;5.95;;;2.88;;
25479;SDS011;13393;49.378;8.686;2022-07-29T01:09:49;5.28;;;2.85;;
25479;SDS011;13393;49.378;8.686;2022-07-29T01:12:17;4.32;;;2.95;;
25479;SDS011;13393;49.378;8.686;2022-07-29T01:14:44;6.78;;;3.22;;
25479;SDS011;13393;49.378;8.686;2022-07-29T01:17:14;5.93;;;2.97;;
25479;SDS011;13393;49.378;8.686;2022-07-29T01:19:47;5.47;;;3.00;;
25479;SDS011;13393;49.378;8.686;2022-07-29T01:22:19;6.18;;;2.78;;
25479;SDS011;13393;49.378;8.686;2022-07-29T01:24:56;7.63;;;3.25;;
25479;SDS011;13393;49.378;8.686;2022-07-29T01:27:32;4.15;;;2.60;;
25479;SDS011;13393;49.378;8.686;2022-07-29T01:30:06;3.80;;;3.10;;
25479;SDS011;13393;49.378;8.686;2022-07-29T01:32:33;4.70;;;2.67;;
25479;SDS011;13393;49.378;8.686;2022-07-29T01:35:02;2.90;;;2.60;;
25479;SDS011;13393;49.378;8.686;2022-07-29T01:37:29;5.80;;;3.35;;
25479;SDS011;13393;49.378;8.686;2022-07-29T01:39:58;7.47;;;3.28;;
25479;SDS011;13393;49.378;8.686;2022-07-29T01:42:27;4.43;;;2.70;;
25479;SDS011;13393;49.378;8.686;2022-07-29T01:44:57;3.38;;;2.70;;
25479;SDS011;13393;49.378;8.686;2022-07-29T01:47:28;4.32;;;2.85;;
25479;SDS011;13393;49.378;8.686;2022-07-29T01:49:58;4.40;;;2.88;;
25479;SDS011;13393;49.378;8.686;2022-07-29T01:52:26;3.65;;;2.90;;
25479;SDS011;13393;49.378;8.686;2022-07-29T01:54:55;3.45;;;2.95;;
25479;SDS011;13393;49.378;8.686;2022-07-29T01:57:25;5.03;;;3.10;;
25479;SDS011;13393;49.378;8.686;2022-07-29T01:59:52;5.78;;;3.38;;
25479;SDS011;13393;49.378;8.686;2022-07-29T02:02:19;5.57;;;2.90;;
25479;SDS011;13393;49.378;8.686;2022-07-29T02:04:48;4.53;;;2.90;;
25479;SDS011;13393;49.378;8.686;2022-07-29T02:07:17;3.70;;;2.70;;
25479;SDS011;13393;49.378;8.686;2022-07-29T02:09:43;4.60;;;2.95;;
25479;SDS011;13393;49.378;8.686;2022-07-29T02:12:11;5.95;;;2.83;;
25479;SDS011;13393;49.378;8.686;2022-07-29T02:14:40;3.63;;;3.20;;
25479;SDS011;13393;49.378;8.686;2022-07-29T02:17:08;4.80;;;3.03;;
25479;SDS011;13393;49.378;8.686;2022-07-29T02:19:34;6.38;;;3.28;;
25479;SDS011;13393;49.378;8.686;2022-07-29T02:22:04;4.68;;;3.20;;
25479;SDS011;13393;49.378;8.686;2022-07-29T02:24:31;3.30;;;2.80;;
25479;SDS011;13393;49.378;8.686;2022-07-29T02:26:58;5.88;;;2.97;;
25479;SDS011;13393;49.378;8.686;2022-07-29T02:29:26;4.28;;;3.08;;
25479;SDS011;13393;49.378;8.686;2022-07-29T02:31:53;4.65;;;2.80;;
25479;SDS011;13393;49.378;8.686;2022-07-29T02:34:21;4.50;;;2.95;;
25479;SDS011;13393;49.378;8.686;2022-07-29T02:36:48;3.33;;;2.85;;
25479;SDS011;13393;49.378;8.686;2022-07-29T02:39:16;4.05;;;3.33;;
25479;SDS011;13393;49.378;8.686;2022-07-29T02:41:44;4.55;;;3.20;;
25479;SDS011;13393;49.378;8.686;2022-07-29T02:44:12;4.40;;;2.70;;
25479;SDS011;13393;49.378;8.686;2022-07-29T02:46:41;3.78;;;3.30;;
25479;SDS011;13393;49.378;8.686;2022-07-29T02:49:10;4.05;;;3.10;;
25479;SDS011;13393;49.378;8.686;2022-07-29T02:51:40;6.57;;;3.05;;
25479;SDS011;13393;49.378;8.686;2022-07-29T02:54:07;3.35;;;3.05;;
25479;SDS011;13393;49.378;8.686;2022-07-29T02:56:36;5.32;;;2.80;;
25479;SDS011;13393;49.378;8.686;2022-07-29T02:59:06;4.32;;;2.85;;
25479;SDS011;13393;49.378;8.686;2022-07-29T03:01:33;4.22;;;3.13;;
25479;SDS011;13393;49.378;8.686;2022-07-29T03:04:01;5.03;;;3.00;;
25479;SDS011;13393;49.378;8.686;2022-07-29T03:06:29;5.65;;;3.05;;
25479;SDS011;13393;49.378;8.686;2022-07-29T03:08:56;4.38;;;2.85;;
25479;SDS011;13393;49.378;8.686;2022-07-29T03:11:23;3.78;;;2.80;;
25479;SDS011;13393;49.378;8.686;2022-07-29T03:13:52;3.45;;;3.00;;
25479;SDS011;13393;49.378;8.686;2022-07-29T03:16:19;3.10;;;2.88;;
25479;SDS011;13393;49.378;8.686;2022-07-29T03:18:45;4.22;;;2.90;;
25479;SDS011;13393;49.378;8.686;2022-07-29T03:21:12;3.60;;;2.92;;
25479;SDS011;13393;49.378;8.686;2022-07-29T03:23:41;5.60;;;3.00;;
25479;SDS011;13393;49.378;8.686;2022-07-29T03:26:09;3.10;;;2.70;;
25479;SDS011;13393;49.378;8.686;2022-07-29T03:28:35;4.60;;;2.95;;
25479;SDS011;13393;49.378;8.686;2022-07-29T03:31:03;4.78;;;3.00;;
25479;SDS011;13393;49.378;8.686;2022-07-29T03:33:29;4.88;;;2.85;;
25479;SDS011;13393;49.378;8.686;2022-07-29T03:35:56;3.45;;;2.85;;
25479;SDS011;13393;49.378;8.686;2022-07-29T03:38:24;4.57;;;3.25;;
25479;SDS011;13393;49.378;8.686;2022-07-29T03:40:51;4.55;;;2.85;;
25479;SDS011;13393;49.378;8.686;2022-07-29T03:43:18;3.47;;;2.83;;
25479;SDS011;13393;49.378;8.686;2022-07-29T03:45:48;3.33;;;2.53;;
25479;SDS011;13393;49.378;8.686;2022-07-29T03:48:18;3.22;;;2.60;;
25479;SDS011;13393;49.378;8.686;2022-07-29T03:50:45;6.30;;;3.10;;
25479;SDS011;13393;49.378;8.686;2022-07-29T03:53:12;4.50;;;2.90;;
25479;SDS011;13393;49.378;8.686;2022-07-29T03:55:40;4.00;;;2.90;;
25479;SDS011;13393;49.378;8.686;2022-07-29T03:58:07;3.35;;;2.80;;
25479;SDS011;13393;49.378;8.686;2022-07-29T04:00:34;5.50;;;3.17;;
25479;SDS011;13393;49.378;8.686;2022-07-29T04:03:00;2.65;;;2.45;;
25479;SDS011;13393;49.378;8.686;2022-07-29T04:05:28;2.88;;;2.67;;
25479;SDS011;13393;49.378;8.686;2022-07-29T04:07:55;4.43;;;2.95;;
25479;SDS011;13393;49.378;8.686;2022-07-29T04:10:21;4.38;;;3.20;;
25479;SDS011;13393;49.378;8.686;2022-07-29T04:12:48;2.88;;;2.67;;
25479;SDS011;13393;49.378;8.686;2022-07-29T04:15:14;3.08;;;2.78;;
25479;SDS011;13393;49.378;8.686;2022-07-29T04:17:40;4.75;;;2.97;;
25479;SDS011;13393;49.378;8.686;2022-07-29T04:20:07;4.18;;;3.75;;
25479;SDS011;13393;49.378;8.686;2022-07-29T04:22:35;4.60;;;3.40;;
25479;SDS011;13393;49.378;8.686;2022-07-29T04:25:01;6.95;;;5.10;;
25479;SDS011;13393;49.378;8.686;2022-07-29T04:27:28;7.30;;;3.97;;
25479;SDS011;13393;49.378;8.686;2022-07-29T04:29:54;3.40;;;3.10;;
25479;SDS011;13393;49.378;8.686;2022-07-29T04:32:21;3.05;;;2.75;;
25479;SDS011;13393;49.378;8.686;2022-07-29T04:34:47;4.05;;;2.92;;
25479;SDS011;13393;49.378;8.686;2022-07-29T04:37:13;3.95;;;2.97;;
25479;SDS011;13393;49.378;8.686;2022-07-29T04:39:41;4.57;;;3.33;;
25479;SDS011;13393;49.378;8.686;2022-07-29T04:42:08;4.43;;;3.22;;
25479;SDS011;13393;49.378;8.686;2022-07-29T04:44:34;7.43;;;3.28;;
25479;SDS011;13393;49.378;8.686;2022-07-29T04:47:00;3.60;;;2.80;;
25479;SDS011;13393;49.378;8.686;2022-07-29T04:49:27;4.18;;;3.58;;
25479;SDS011;13393;49.378;8.686;2022-07-29T04:51:53;4.63;;;2.90;;
25479;SDS011;13393;49.378;8.686;2022-07-29T04:54:19;4.75;;;2.92;;
25479;SDS011;13393;49.378;8.686;2022-07-29T04:56:47;5.68;;;3.17;;
25479;SDS011;13393;49.378;8.686;2022-07-29T04:59:13;5.85;;;3.63;;
25479;SDS011;13393;49.378;8.686;2022-07-29T05:01:40;3.10;;;2.80;;
25479;SDS011;13393;49.378;8.686;2022-07-29T05:04:06;5.00;;;2.95;;
25479;SDS011;13393;49.378;8.686;2022-07-29T05:06:32;3.63;;;3.00;;
25479;SDS011;13393;49.378;8.686;2022-07-29T05:08:59;5.40;;;3.58;;
25479;SDS011;13393;49.378;8.686;2022-07-29T05:11:25;6.15;;;3.75;;
25479;SDS011;13393;49.378;8.686;2022-07-29T05:13:53;6.55;;;4.03;;
25479;SDS011;13393;49.378;8.686;2022-07-29T05:16:19;9.05;;;4.07;;
25479;SDS011;13393;49.378;8.686;2022-07-29T05:18:46;5.82;;;3.45;;
25479;SDS011;13393;49.378;8.686;2022-07-29T05:21:12;6.20;;;3.50;;
25479;SDS011;13393;49.378;8.686;2022-07-29T05:23:38;4.63;;;3.65;;
25479;SDS011;13393;49.378;8.686;2022-07-29T05:26:05;5.40;;;3.22;;
25479;SDS011;13393;49.378;8.686;2022-07-29T05:28:32;5.50;;;3.30;;
25479;SDS011;13393;49.378;8.686;2022-07-29T05:31:00;4.70;;;2.80;;
25479;SDS011;13393;49.378;8.686;2022-07-29T05:33:26;4.57;;;2.80;;
25479;SDS011;13393;49.378;8.686;2022-07-29T05:35:53;3.72;;;2.80;;
25479;SDS011;13393;49.378;8.686;2022-07-29T05:38:19;4.68;;;2.70;;
25479;SDS011;13393;49.378;8.686;2022-07-29T05:40:45;6.22;;;2.80;;
25479;SDS011;13393;49.378;8.686;2022-07-29T05:43:12;4.53;;;3.20;;
25479;SDS011;13393;49.378;8.686;2022-07-29T05:45:38;5.93;;;3.00;;
25479;SDS011;13393;49.378;8.686;2022-07-29T05:48:06;7.60;;;3.20;;
25479;SDS011;13393;49.378;8.686;2022-07-29T05:50:32;6.18;;;3.20;;
25479;SDS011;13393;49.378;8.686;2022-07-29T05:52:59;8.57;;;3.03;;
25479;SDS011;13393;49.378;8.686;2022-07-29T05:55:25;6.40;;;2.88;;
25479;SDS011;13393;49.378;8.686;2022-07-29T05:57:51;3.88;;;2.70;;
25479;SDS011;13393;49.378;8.686;2022-07-29T06:00:18;4.55;;;2.75;;
25479;SDS011;13393;49.378;8.686;2022-07-29T06:02:44;3.28;;;2.72;;
25479;SDS011;13393;49.378;8.686;2022-07-29T06:05:12;3.25;;;2.65;;
25479;SDS011;13393;49.378;8.686;2022-07-29T06:07:40;2.83;;;2.47;;
25479;SDS011;13393;49.378;8.686;2022-07-29T06:10:06;4.88;;;3.00;;
25479;SDS011;13393;49.378;8.686;2022-07-29T06:12:33;3.83;;;2.97;;
25479;SDS011;13393;49.378;8.686;2022-07-29T06:14:59;2.55;;;2.35;;
25479;SDS011;13393;49.378;8.686;2022-07-29T06:17:25;4.20;;;2.50;;
25479;SDS011;13393;49.378;8.686;2022-07-29T06:19:52;4.63;;;2.72;;
25479;SDS011;13393;49.378;8.686;2022-07-29T06:22:19;3.10;;;2.45;;
25479;SDS011;13393;49.378;8.686;2022-07-29T06:24:46;2.92;;;2.40;;
25479;SDS011;13393;49.378;8.686;2022-07-29T06:27:12;5.40;;;2.80;;
25479;SDS011;13393;49.378;8.686;2022-07-29T06:29:39;3.30;;;2.60;;
25479;SDS011;13393;49.378;8.686;2022-07-29T06:32:05;4.25;;;2.80;;
25479;SDS011;13393;49.378;8.686;2022-07-29T06:34:31;4.00;;;2.72;;
25479;SDS011;13393;49.378;8.686;2022-07-29T06:36:58;5.03;;;2.47;;
25479;SDS011;13393;49.378;8.686;2022-07-29T06:39:26;2.80;;;2.30;;
25479;SDS011;13393;49.378;8.686;2022-07-29T06:41:52;2.70;;;2.40;;
25479;SDS011;13393;49.378;8.686;2022-07-29T06:44:19;4.68;;;2.45;;
25479;SDS011;13393;49.378;8.686;2022-07-29T06:46:45;5.40;;;2.38;;
25479;SDS011;13393;49.378;8.686;2022-07-29T06:49:14;2.97;;;2.67;;
25479;SDS011;13393;49.378;8.686;2022-07-29T06:51:40;5.35;;;2.78;;
25479;SDS011;13393;49.378;8.686;2022-07-29T06:54:06;3.92;;;2.42;;
25479;SDS011;13393;49.378;8.686;2022-07-29T06:56:34;2.70;;;2.50;;
25479;SDS011;13393;49.378;8.686;2022-07-29T06:59:02;3.13;;;2.60;;
25479;SDS011;13393;49.378;8.686;2022-07-29T07:01:28;3.58;;;2.75;;
25479;SDS011;13393;49.378;8.686;2022-07-29T07:03:55;4.57;;;2.60;;
25479;SDS011;13393;49.378;8.686;2022-07-29T07:06:21;4.85;;;2.70;;
25479;SDS011;13393;49.378;8.686;2022-07-29T07:08:47;7.28;;;3.00;;
25479;SDS011;13393;49.378;8.686;2022-07-29T07:11:14;5.60;;;3.40;;
25479;SDS011;13393;49.378;8.686;2022-07-29T07:13:41;7.75;;;3.40;;
25479;SDS011;13393;49.378;8.686;2022-07-29T07:16:08;4.60;;;3.13;;
25479;SDS011;13393;49.378;8.686;2022-07-29T07:18:34;3.72;;;3.17;;
25479;SDS011;13393;49.378;8.686;2022-07-29T07:21:00;6.07;;;3.42;;
25479;SDS011;13393;49.378;8.686;2022-07-29T07:23:27;3.35;;;3.00;;
25479;SDS011;13393;49.378;8.686;2022-07-29T07:25:53;3.50;;;3.20;;
25479;SDS011;13393;49.378;8.686;2022-07-29T07:28:19;6.05;;;3.45;;
25479;SDS011;13393;49.378;8.686;2022-07-29T07:30:47;7.03;;;3.10;;
25479;SDS011;13393;49.378;8.686;2022-07-29T07:33:14;7.03;;;3.78;;
25479;SDS011;13393;49.378;8.686;2022-07-29T07:35:40;5.65;;;3.42;;
25479;SDS011;13393;49.378;8.686;2022-07-29T07:38:06;5.43;;;3.50;;
25479;SDS011;13393;49.378;8.686;2022-07-29T07:40:33;4.70;;;3.45;;
25479;SDS011;13393;49.378;8.686;2022-07-29T07:42:59;4.72;;;3.50;;
25479;SDS011;13393;49.378;8.686;2022-07-29T07:45:26;3.92;;;2.97;;
25479;SDS011;13393;49.378;8.686;2022-07-29T07:47:54;7.93;;;3.10;;
25479;SDS011;13393;49.378;8.686;2022-07-29T07:50:20;3.90;;;3.50;;
25479;SDS011;13393;49.378;8.686;2022-07-29T07:52:47;6.70;;;3.50;;
25479;SDS011;13393;49.378;8.686;2022-07-29T07:55:14;4.22;;;3.40;;
25479;SDS011;13393;49.378;8.686;2022-07-29T07:57:41;4.07;;;3.40;;
25479;SDS011;13393;49.378;8.686;2022-07-29T08:00:07;4.57;;;3.17;;
25479;SDS011;13393;49.378;8.686;2022-07-29T08:02:34;6.78;;;4.18;;
25479;SDS011;13393;49.378;8.686;2022-07-29T08:05:02;7.22;;;3.80;;
25479;SDS011;13393;49.378;8.686;2022-07-29T08:07:28;8.30;;;3.83;;
25479;SDS011;13393;49.378;8.686;2022-07-29T08:09:55;6.93;;;4.28;;
25479;SDS011;13393;49.378;8.686;2022-07-29T08:12:21;4.55;;;3.45;;
25479;SDS011;13393;49.378;8.686;2022-07-29T08:14:47;5.78;;;3.90;;
25479;SDS011;13393;49.378;8.686;2022-07-29T08:17:14;7.07;;;3.38;;
25479;SDS011;13393;49.378;8.686;2022-07-29T08:19:40;8.63;;;3.50;;
25479;SDS011;13393;49.378;8.686;2022-07-29T08:22:08;8.57;;;3.67;;
25479;SDS011;13393;49.378;8.686;2022-07-29T08:24:35;8.57;;;3.58;;
25479;SDS011;13393;49.378;8.686;2022-07-29T08:27:17;9.15;;;3.72;;
25479;SDS011;13393;49.378;8.686;2022-07-29T08:29:44;5.80;;;3.50;;
25479;SDS011;13393;49.378;8.686;2022-07-29T08:32:10;8.82;;;3.88;;
25479;SDS011;13393;49.378;8.686;2022-07-29T08:34:36;7.85;;;3.58;;
25479;SDS011;13393;49.378;8.686;2022-07-29T08:37:03;7.15;;;3.72;;
25479;SDS011;13393;49.378;8.686;2022-07-29T08:39:30;5.95;;;3.60;;
25479;SDS011;13393;49.378;8.686;2022-07-29T08:41:57;7.72;;;3.28;;
25479;SDS011;13393;49.378;8.686;2022-07-29T08:44:23;5.55;;;3.65;;
25479;SDS011;13393;49.378;8.686;2022-07-29T08:46:50;8.93;;;3.55;;
25479;SDS011;13393;49.378;8.686;2022-07-29T08:49:16;8.60;;;3.53;;
25479;SDS011;13393;49.378;8.686;2022-07-29T08:51:43;6.47;;;3.50;;
25479;SDS011;13393;49.378;8.686;2022-07-29T08:54:10;5.65;;;3.92;;
25479;SDS011;13393;49.378;8.686;2022-07-29T08:56:38;4.95;;;4.30;;
25479;SDS011;13393;49.378;8.686;2022-07-29T08:59:05;9.77;;;3.42;;
25479;SDS011;13393;49.378;8.686;2022-07-29T09:01:33;3.92;;;3.63;;
25479;SDS011;13393;49.378;8.686;2022-07-29T09:04:02;5.47;;;4.00;;
25479;SDS011;13393;49.378;8.686;2022-07-29T09:06:29;5.63;;;3.63;;
25479;SDS011;13393;49.378;8.686;2022-07-29T09:08:58;4.75;;;3.47;;
25479;SDS011;13393;49.378;8.686;2022-07-29T09:11:25;5.28;;;3.70;;
25479;SDS011;13393;49.378;8.686;2022-07-29T09:13:52;8.75;;;4.13;;
25479;SDS011;13393;49.378;8.686;2022-07-29T09:16:19;7.25;;;4.25;;
25479;SDS011;13393;49.378;8.686;2022-07-29T09:18:45;6.70;;;4.38;;
25479;SDS011;13393;49.378;8.686;2022-07-29T09:21:12;6.45;;;3.90;;
25479;SDS011;13393;49.378;8.686;2022-07-29T09:26:23;5.50;;;4.13;;
25479;SDS011;13393;49.378;8.686;2022-07-29T09:28:55;5.97;;;4.45;;
25479;SDS011;13393;49.378;8.686;2022-07-29T09:31:23;7.90;;;4.80;;
25479;SDS011;13393;49.378;8.686;2022-07-29T09:33:52;9.50;;;4.38;;
25479;SDS011;13393;49.378;8.686;2022-07-29T09:36:20;8.95;;;4.13;;
25479;SDS011;13393;49.378;8.686;2022-07-29T09:38:56;6.53;;;4.03;;
25479;SDS011;13393;49.378;8.686;2022-07-29T09:41:23;4.07;;;3.60;;
25479;SDS011;13393;49.378;8.686;2022-07-29T09:43:59;4.55;;;3.80;;
25479;SDS011;13393;49.378;8.686;2022-07-29T09:46:26;4.90;;;3.95;;
25479;SDS011;13393;49.378;8.686;2022-07-29T09:49:06;7.35;;;3.85;;
25479;SDS011;13393;49.378;8.686;2022-07-29T09:51:32;7.78;;;3.92;;
25479;SDS011;13393;49.378;8.686;2022-07-29T09:53:59;4.63;;;4.03;;
25479;SDS011;13393;49.378;8.686;2022-07-29T09:56:38;6.63;;;3.58;;
25479;SDS011;13393;49.378;8.686;2022-07-29T09:59:06;6.80;;;3.78;;
25479;SDS011;13393;49.378;8.686;2022-07-29T10:01:33;6.20;;;3.80;;
25479;SDS011;13393;49.378;8.686;2022-07-29T10:03:59;6.75;;;4.25;;
25479;SDS011;13393;49.378;8.686;2022-07-29T10:06:26;6.80;;;3.80;;
25479;SDS011;13393;49.378;8.686;2022-07-29T10:08:52;7.05;;;4.13;;
25479;SDS011;13393;49.378;8.686;2022-07-29T10:11:19;7.35;;;3.97;;
25479;SDS011;13393;49.378;8.686;2022-07-29T10:13:46;5.38;;;3.70;;
25479;SDS011;13393;49.378;8.686;2022-07-29T10:16:15;5.43;;;3.88;;
25479;SDS011;13393;49.378;8.686;2022-07-29T10:18:42;5.20;;;3.85;;
25479;SDS011;13393;49.378;8.686;2022-07-29T10:21:08;7.70;;;3.63;;
25479;SDS011;13393;49.378;8.686;2022-07-29T10:23:35;5.47;;;4.10;;
25479;SDS011;13393;49.378;8.686;2022-07-29T10:26:02;4.18;;;3.30;;
25479;SDS011;13393;49.378;8.686;2022-07-29T10:28:29;3.53;;;3.20;;
25479;SDS011;13393;49.378;8.686;2022-07-29T10:30:58;9.05;;;3.72;;
25479;SDS011;13393;49.378;8.686;2022-07-29T10:33:34;4.18;;;3.78;;
25479;SDS011;13393;49.378;8.686;2022-07-29T10:36:17;5.28;;;3.38;;
25479;SDS011;13393;49.378;8.686;2022-07-29T10:38:48;5.15;;;3.70;;
25479;SDS011;13393;49.378;8.686;2022-07-29T10:44:15;4.35;;;3.80;;
25479;SDS011;13393;49.378;8.686;2022-07-29T10:46:42;5.88;;;3.60;;
25479;SDS011;13393;49.378;8.686;2022-07-29T10:49:10;7.05;;;3.38;;
25479;SDS011;13393;49.378;8.686;2022-07-29T10:51:57;6.22;;;3.20;;
25479;SDS011;13393;49.378;8.686;2022-07-29T10:54:40;5.13;;;3.30;;
25479;SDS011;13393;49.378;8.686;2022-07-29T10:57:11;8.43;;;3.45;;
25479;SDS011;13393;49.378;8.686;2022-07-29T10:59:38;6.60;;;3.70;;
25479;SDS011;13393;49.378;8.686;2022-07-29T11:02:14;6.05;;;3.40;;
25479;SDS011;13393;49.378;8.686;2022-07-29T11:05:03;4.72;;;3.35;;
25479;SDS011;13393;49.378;8.686;2022-07-29T11:07:31;3.50;;;3.20;;
25479;SDS011;13393;49.378;8.686;2022-07-29T11:12:47;7.68;;;3.75;;
25479;SDS011;13393;49.378;8.686;2022-07-29T11:15:16;5.72;;;3.20;;
25479;SDS011;13393;49.378;8.686;2022-07-29T11:18:02;6.55;;;3.72;;
25479;SDS011;13393;49.378;8.686;2022-07-29T11:20:35;4.72;;;3.33;;
25479;SDS011;13393;49.378;8.686;2022-07-29T11:23:01;3.42;;;3.13;;
25479;SDS011;13393;49.378;8.686;2022-07-29T11:25:28;5.70;;;3.97;;
25479;SDS011;13393;49.378;8.686;2022-07-29T11:27:54;3.22;;;2.92;;
25479;SDS011;13393;49.378;8.686;2022-07-29T11:30:47;5.32;;;3.20;;
25479;SDS011;13393;49.378;8.686;2022-07-29T11:33:26;4.63;;;2.97;;
25479;SDS011;13393;49.378;8.686;2022-07-29T11:38:35;5.43;;;3.35;;
25479;SDS011;13393;49.378;8.686;2022-07-29T11:41:23;5.35;;;3.33;;
25479;SDS011;13393;49.378;8.686;2022-07-29T11:43:50;5.88;;;3.10;;
25479;SDS011;13393;49.378;8.686;2022-07-29T11:46:18;3.72;;;2.90;;
25479;SDS011;13393;49.378;8.686;2022-07-29T11:48:44;6.30;;;3.00;;
25479;SDS011;13393;49.378;8.686;2022-07-29T11:51:11;3.90;;;3.00;;
25479;SDS011;13393;49.378;8.686;2022-07-29T11:53:39;5.55;;;3.17;;
25479;SDS011;13393;49.378;8.686;2022-07-29T11:56:07;5.05;;;2.90;;
25479;SDS011;13393;49.378;8.686;2022-07-29T11:58:34;4.55;;;3.20;;
25479;SDS011;13393;49.378;8.686;2022-07-29T12:01:02;3.53;;;2.88;;
25479;SDS011;13393;49.378;8.686;2022-07-29T12:03:29;7.60;;;3.38;;
25479;SDS011;13393;49.378;8.686;2022-07-29T12:05:55;8.40;;;3.40;;
25479;SDS011;13393;49.378;8.686;2022-07-29T12:08:22;5.90;;;3.25;;
25479;SDS011;13393;49.378;8.686;2022-07-29T12:10:52;8.88;;;3.38;;
25479;SDS011;13393;49.378;8.686;2022-07-29T12:13:19;5.35;;;3.17;;
25479;SDS011;13393;49.378;8.686;2022-07-29T12:15:51;3.70;;;2.65;;
25479;SDS011;13393;49.378;8.686;2022-07-29T12:18:18;4.22;;;3.00;;
25479;SDS011;13393;49.378;8.686;2022-07-29T12:20:45;4.03;;;2.92;;
25479;SDS011;13393;49.378;8.686;2022-07-29T12:23:12;4.82;;;3.10;;
25479;SDS011;13393;49.378;8.686;2022-07-29T12:25:39;6.97;;;3.03;;
25479;SDS011;13393;49.378;8.686;2022-07-29T12:28:08;4.80;;;2.83;;
25479;SDS011;13393;49.378;8.686;2022-07-29T12:30:41;7.10;;;3.17;;
25479;SDS011;13393;49.378;8.686;2022-07-29T12:33:12;5.40;;;2.80;;
25479;SDS011;13393;49.378;8.686;2022-07-29T12:35:38;3.83;;;2.90;;
25479;SDS011;13393;49.378;8.686;2022-07-29T12:38:05;3.97;;;2.83;;
25479;SDS011;13393;49.378;8.686;2022-07-29T12:40:32;6.38;;;2.70;;
25479;SDS011;13393;49.378;8.686;2022-07-29T12:43:04;3.50;;;2.80;;
25479;SDS011;13393;49.378;8.686;2022-07-29T12:45:32;4.55;;;2.70;;
25479;SDS011;13393;49.378;8.686;2022-07-29T12:47:59;9.38;;;2.67;;
25479;SDS011;13393;49.378;8.686;2022-07-29T12:50:25;8.20;;;2.80;;
25479;SDS011;13393;49.378;8.686;2022-07-29T12:52:51;4.22;;;2.92;;
25479;SDS011;13393;49.378;8.686;2022-07-29T12:57:59;5.38;;;2.85;;
25479;SDS011;13393;49.378;8.686;2022-07-29T13:00:26;4.72;;;2.63;;
25479;SDS011;13393;49.378;8.686;2022-07-29T13:02:55;5.03;;;2.70;;
25479;SDS011;13393;49.378;8.686;2022-07-29T13:05:22;8.60;;;2.90;;
25479;SDS011;13393;49.378;8.686;2022-07-29T13:07:49;8.00;;;2.78;;
25479;SDS011;13393;49.378;8.686;2022-07-29T13:10:16;7.47;;;2.85;;
25479;SDS011;13393;49.378;8.686;2022-07-29T13:13:01;4.63;;;2.92;;
25479;SDS011;13393;49.378;8.686;2022-07-29T13:15:28;5.25;;;2.70;;
25479;SDS011;13393;49.378;8.686;2022-07-29T13:17:56;6.13;;;2.53;;
25479;SDS011;13393;49.378;8.686;2022-07-29T13:20:23;7.07;;;2.63;;
25479;SDS011;13393;49.378;8.686;2022-07-29T13:22:50;5.05;;;2.67;;
25479;SDS011;13393;49.378;8.686;2022-07-29T13:25:23;4.05;;;2.60;;
25479;SDS011;13393;49.378;8.686;2022-07-29T13:27:49;6.35;;;2.78;;
25479;SDS011;13393;49.378;8.686;2022-07-29T13:30:16;5.90;;;2.85;;
25479;SDS011;13393;49.378;8.686;2022-07-29T13:32:42;5.43;;;2.78;;
25479;SDS011;13393;49.378;8.686;2022-07-29T13:35:11;5.28;;;2.65;;
25479;SDS011;13393;49.378;8.686;2022-07-29T13:37:38;9.15;;;3.10;;
25479;SDS011;13393;49.378;8.686;2022-07-29T13:40:05;2.60;;;2.40;;
25479;SDS011;13393;49.378;8.686;2022-07-29T13:42:32;4.72;;;2.90;;
25479;SDS011;13393;49.378;8.686;2022-07-29T13:44:58;6.97;;;2.85;;
25479;SDS011;13393;49.378;8.686;2022-07-29T13:47:25;6.43;;;2.85;;
25479;SDS011;13393;49.378;8.686;2022-07-29T13:49:52;6.65;;;2.75;;
25479;SDS011;13393;49.378;8.686;2022-07-29T13:52:20;5.85;;;2.63;;
25479;SDS011;13393;49.378;8.686;2022-07-29T13:54:46;3.20;;;2.40;;
25479;SDS011;13393;49.378;8.686;2022-07-29T13:57:13;4.90;;;2.70;;
25479;SDS011;13393;49.378;8.686;2022-07-29T13:59:39;4.57;;;2.70;;
25479;SDS011;13393;49.378;8.686;2022-07-29T14:02:06;6.47;;;3.03;;
25479;SDS011;13393;49.378;8.686;2022-07-29T14:04:33;5.50;;;3.00;;
25479;SDS011;13393;49.378;8.686;2022-07-29T14:07:00;5.40;;;2.75;;
25479;SDS011;13393;49.378;8.686;2022-07-29T14:09:27;14.48;;;3.30;;
25479;SDS011;13393;49.378;8.686;2022-07-29T14:11:54;7.18;;;2.88;;
25479;SDS011;13393;49.378;8.686;2022-07-29T14:14:21;5.93;;;2.90;;
25479;SDS011;13393;49.378;8.686;2022-07-29T14:16:47;5.63;;;3.03;;
25479;SDS011;13393;49.378;8.686;2022-07-29T14:19:13;3.30;;;2.72;;
25479;SDS011;13393;49.378;8.686;2022-07-29T14:21:40;5.35;;;2.80;;
25479;SDS011;13393;49.378;8.686;2022-07-29T14:24:06;6.05;;;3.00;;
25479;SDS011;13393;49.378;8.686;2022-07-29T14:26:34;4.93;;;2.85;;
25479;SDS011;13393;49.378;8.686;2022-07-29T14:29:01;4.97;;;2.40;;
25479;SDS011;13393;49.378;8.686;2022-07-29T14:31:27;4.47;;;2.30;;
25479;SDS011;13393;49.378;8.686;2022-07-29T14:33:56;7.80;;;2.50;;
25479;SDS011;13393;49.378;8.686;2022-07-29T14:36:23;5.63;;;2.25;;
25479;SDS011;13393;49.378;8.686;2022-07-29T14:38:49;4.35;;;2.08;;
25479;SDS011;13393;49.378;8.686;2022-07-29T14:41:16;4.13;;;2.00;;
25479;SDS011;13393;49.378;8.686;2022-07-29T14:43:44;3.63;;;2.45;;
25479;SDS011;13393;49.378;8.686;2022-07-29T14:46:10;4.90;;;2.17;;
25479;SDS011;13393;49.378;8.686;2022-07-29T14:48:37;4.80;;;2.25;;
25479;SDS011;13393;49.378;8.686;2022-07-29T14:51:03;3.83;;;2.17;;
25479;SDS011;13393;49.378;8.686;2022-07-29T14:53:30;3.85;;;2.47;;
25479;SDS011;13393;49.378;8.686;2022-07-29T14:55:57;4.57;;;2.20;;
25479;SDS011;13393;49.378;8.686;2022-07-29T14:58:23;5.30;;;2.50;;
25479;SDS011;13393;49.378;8.686;2022-07-29T15:00:51;3.70;;;2.40;;
25479;SDS011;13393;49.378;8.686;2022-07-29T15:03:17;3.15;;;2.20;;
25479;SDS011;13393;49.378;8.686;2022-07-29T15:05:44;3.05;;;2.35;;